Time;durP1;ratioP1;P1;durP2;ratioP2;P2;SDS_P1;SDS_P2;PMS_P1;PMS_P2;Temp;Humidity;BMP_temperature;BMP_pressure;BME280_temperature;BME280_humidity;BME280_pressure;Samples;Min_cycle;Max_cycle;Signal;HPM_P1;HPM_P2
2023/07/28 00:00:04;;;;;;;9.55;3.92;;;18.20;99.90;;;;;;5054829;28;20040;-76
2023/07/28 00:02:29;;;;;;;6.22;3.75;;;18.20;99.90;;;;;;5052831;28;20029;-77
2023/07/28 00:04:55;;;;;;;6.88;3.47;;;18.20;99.90;;;;;;5053385;28;20511;-75
2023/07/28 00:07:21;;;;;;;6.15;3.95;;;18.20;99.90;;;;;;5054130;28;20483;-74
2023/07/28 00:09:46;;;;;;;8.43;3.70;;;18.20;99.90;;;;;;5054064;28;20048;-75
2023/07/28 00:12:12;;;;;;;8.82;3.40;;;18.20;99.90;;;;;;5054542;28;20044;-74
2023/07/28 00:14:37;;;;;;;8.48;3.38;;;18.20;99.90;;;;;;5053901;28;20028;-76
2023/07/28 00:17:03;;;;;;;8.57;2.58;;;18.20;99.90;;;;;;5053955;28;20021;-74
2023/07/28 00:19:28;;;;;;;3.92;2.10;;;18.20;99.90;;;;;;5052582;28;20035;-75
2023/07/28 00:21:56;;;;;;;5.25;2.83;;;18.20;99.90;;;;;;5054445;28;20067;-76
2023/07/28 00:24:21;;;;;;;7.28;2.67;;;18.10;99.90;;;;;;5053628;28;20040;-75
2023/07/28 00:26:47;;;;;;;7.32;2.95;;;18.20;99.90;;;;;;5053660;28;20472;-75
2023/07/28 00:29:12;;;;;;;10.93;2.92;;;18.20;99.90;;;;;;5052417;28;20476;-75
2023/07/28 00:31:38;;;;;;;6.35;2.72;;;18.20;99.90;;;;;;5054294;28;20444;-75
2023/07/28 00:34:04;;;;;;;7.97;2.20;;;18.20;99.90;;;;;;5053519;28;20040;-76
2023/07/28 00:36:30;;;;;;;8.60;3.35;;;18.20;99.90;;;;;;5053648;28;20025;-74
2023/07/28 00:38:56;;;;;;;10.98;3.17;;;18.20;99.90;;;;;;5053527;28;20024;-74
2023/07/28 00:41:22;;;;;;;10.98;3.05;;;18.20;99.90;;;;;;5053548;28;20029;-75
2023/07/28 00:43:48;;;;;;;7.55;2.47;;;18.20;99.90;;;;;;5053416;28;20021;-75
2023/07/28 00:46:14;;;;;;;4.57;2.35;;;18.20;99.90;;;;;;5053876;28;20464;-75
2023/07/28 00:48:40;;;;;;;10.95;3.05;;;18.20;99.90;;;;;;5053395;28;20060;-76
2023/07/28 00:51:07;;;;;;;8.88;2.55;;;18.20;99.90;;;;;;5053439;28;20025;-75
2023/07/28 00:53:33;;;;;;;7.80;2.25;;;18.20;99.90;;;;;;5053314;28;20035;-76
2023/07/28 00:55:58;;;;;;;5.80;2.53;;;18.20;99.90;;;;;;5051939;28;20112;-75
2023/07/28 00:58:24;;;;;;;7.03;3.42;;;18.20;99.90;;;;;;5053313;28;20055;-75
2023/07/28 01:00:50;;;;;;;9.02;2.80;;;18.20;99.90;;;;;;5053334;28;20021;-75
2023/07/28 01:03:18;;;;;;;9.55;2.85;;;18.20;99.90;;;;;;5052862;28;20036;-74
2023/07/28 01:05:55;;;;;;;8.73;2.80;;;18.20;99.90;;;;;;5053121;28;20488;-75
2023/07/28 01:08:28;;;;;;;9.75;3.63;;;18.10;99.90;;;;;;5051872;28;20017;-74
2023/07/28 01:10:54;;;;;;;7.15;3.45;;;18.20;99.90;;;;;;5051935;28;20029;-75
2023/07/28 01:13:20;;;;;;;14.13;5.43;;;18.20;99.90;;;;;;5053566;28;20079;-76
2023/07/28 01:15:45;;;;;;;11.68;4.25;;;18.20;99.90;;;;;;5052766;28;20120;-76
2023/07/28 01:18:11;;;;;;;10.52;4.07;;;18.00;99.90;;;;;;5052934;28;20103;-75
2023/07/28 01:20:39;;;;;;;9.30;4.05;;;18.20;99.90;;;;;;5051693;28;20040;-75
2023/07/28 01:23:23;;;;;;;10.57;4.78;;;18.20;99.90;;;;;;5052888;28;20389;-75
2023/07/28 01:26:05;;;;;;;12.18;4.82;;;18.20;99.90;;;;;;5053087;28;20472;-75
2023/07/28 01:28:34;;;;;;;9.85;3.78;;;18.20;99.90;;;;;;5052887;28;20071;-74
2023/07/28 01:31:02;;;;;;;11.63;4.22;;;18.10;99.90;;;;;;5052916;28;20431;-75
2023/07/28 01:33:27;;;;;;;11.63;4.00;;;18.10;99.90;;;;;;5051623;28;20021;-75
2023/07/28 01:35:53;;;;;;;13.55;4.78;;;18.10;99.90;;;;;;5053444;28;20036;-75
2023/07/28 01:38:19;;;;;;;17.98;5.32;;;18.20;99.90;;;;;;5052800;28;20028;-75
2023/07/28 01:40:44;;;;;;;10.57;4.63;;;18.20;99.90;;;;;;5052872;28;20079;-75
2023/07/28 01:43:10;;;;;;;11.80;5.30;;;18.20;99.90;;;;;;5053239;28;20060;-75
2023/07/28 01:45:35;;;;;;;12.95;3.97;;;18.20;99.90;;;;;;5053183;28;20110;-76
2023/07/28 01:48:01;;;;;;;10.50;4.95;;;18.20;99.90;;;;;;5052786;28;20025;-75
2023/07/28 01:50:26;;;;;;;11.07;4.88;;;18.20;99.90;;;;;;5053322;28;20017;-75
2023/07/28 01:52:52;;;;;;;10.18;4.57;;;18.10;99.90;;;;;;5052691;28;20483;-75
2023/07/28 01:55:17;;;;;;;12.63;4.95;;;18.10;99.90;;;;;;5051391;28;20025;-75
2023/07/28 01:57:53;;;;;;;15.13;5.85;;;18.10;99.90;;;;;;5052632;28;20029;-75
2023/07/28 02:00:19;;;;;;;10.68;4.80;;;18.10;99.90;;;;;;5053151;28;20032;-75
2023/07/28 02:02:45;;;;;;;14.40;5.38;;;18.10;99.90;;;;;;5051120;28;20029;-74
2023/07/28 02:05:11;;;;;;;14.13;5.25;;;18.10;99.90;;;;;;5052418;28;20476;-76
2023/07/28 02:07:37;;;;;;;13.35;5.80;;;18.10;99.90;;;;;;5052391;28;20067;-75
2023/07/28 02:10:02;;;;;;;12.70;4.97;;;18.00;99.90;;;;;;5051309;28;20048;-76
2023/07/28 02:12:28;;;;;;;13.75;5.28;;;18.00;99.90;;;;;;5052450;28;20369;-76
2023/07/28 02:14:53;;;;;;;11.30;5.00;;;18.00;99.90;;;;;;5052615;28;20111;-75
2023/07/28 02:17:19;;;;;;;10.70;4.72;;;18.10;99.90;;;;;;5051205;28;20025;-75
2023/07/28 02:19:45;;;;;;;14.55;5.47;;;18.00;99.90;;;;;;5052380;28;20484;-75
2023/07/28 02:22:11;;;;;;;19.27;6.80;;;18.00;99.90;;;;;;5052415;28;20025;-75
2023/07/28 02:24:36;;;;;;;14.65;6.40;;;18.00;99.90;;;;;;5050976;28;20029;-75
2023/07/28 02:27:02;;;;;;;15.02;5.85;;;18.00;99.90;;;;;;5052921;28;20024;-75
2023/07/28 02:29:28;;;;;;;12.20;5.45;;;18.00;99.90;;;;;;5055889;28;20049;-76
2023/07/28 02:31:53;;;;;;;18.52;5.63;;;18.00;99.90;;;;;;5055941;28;20029;-75
2023/07/28 02:34:19;;;;;;;19.50;6.35;;;18.00;99.90;;;;;;5055732;28;20025;-75
2023/07/28 02:36:44;;;;;;;20.42;5.45;;;18.00;99.90;;;;;;5055764;28;20099;-75
2023/07/28 02:39:10;;;;;;;20.10;6.80;;;18.00;99.90;;;;;;5055828;28;20029;-75
2023/07/28 02:41:35;;;;;;;15.32;5.85;;;18.00;99.90;;;;;;5055858;28;20079;-75
2023/07/28 02:44:01;;;;;;;14.73;6.65;;;18.00;99.90;;;;;;5055920;28;20127;-76
2023/07/28 02:46:26;;;;;;;18.45;6.25;;;18.00;99.90;;;;;;5054345;28;20028;-75
2023/07/28 02:48:52;;;;;;;20.77;6.88;;;18.00;99.90;;;;;;5054338;28;20039;-76
2023/07/28 02:51:17;;;;;;;14.60;5.80;;;18.00;99.90;;;;;;5055563;28;20017;-75
2023/07/28 02:53:43;;;;;;;15.23;5.40;;;18.00;99.90;;;;;;5055428;28;20029;-75
2023/07/28 02:56:08;;;;;;;16.92;5.90;;;18.00;99.90;;;;;;5055881;28;20032;-76
2023/07/28 02:58:34;;;;;;;17.60;6.43;;;18.00;99.90;;;;;;5055844;28;20040;-76
2023/07/28 03:00:59;;;;;;;12.93;5.53;;;18.00;99.90;;;;;;5054083;28;20021;-75
2023/07/28 03:03:25;;;;;;;16.30;5.18;;;18.00;99.90;;;;;;5053817;28;20408;-75
2023/07/28 03:05:52;;;;;;;13.80;5.65;;;18.00;99.90;;;;;;5055187;28;20091;-75
2023/07/28 03:08:18;;;;;;;18.75;5.60;;;18.00;99.90;;;;;;5055086;28;20021;-76
2023/07/28 03:10:43;;;;;;;16.67;5.93;;;18.00;99.90;;;;;;5053976;28;20079;-76
2023/07/28 03:13:09;;;;;;;17.02;5.78;;;18.00;99.90;;;;;;5055135;28;20021;-76
2023/07/28 03:15:34;;;;;;;17.65;5.30;;;18.10;99.90;;;;;;5054971;28;20055;-76
2023/07/28 03:18:00;;;;;;;15.77;5.70;;;18.10;99.90;;;;;;5053743;28;20048;-74
2023/07/28 03:20:26;;;;;;;25.75;5.30;;;18.00;99.90;;;;;;5054980;28;20476;-76
2023/07/28 03:22:51;;;;;;;20.83;6.03;;;18.00;99.90;;;;;;5055194;28;20021;-76
2023/07/28 03:25:17;;;;;;;24.02;6.75;;;18.00;99.90;;;;;;5054769;28;20399;-76
2023/07/28 03:27:42;;;;;;;17.00;6.45;;;18.00;99.90;;;;;;5054817;28;20024;-76
2023/07/28 03:30:10;;;;;;;20.38;6.18;;;18.10;99.90;;;;;;5055294;28;20021;-75
2023/07/28 03:32:36;;;;;;;25.48;7.28;;;18.10;99.90;;;;;;5054688;28;20025;-75
2023/07/28 03:35:04;;;;;;;20.15;6.63;;;18.10;99.90;;;;;;5054699;28;20036;-75
2023/07/28 03:37:31;;;;;;;18.40;6.93;;;18.10;99.90;;;;;;5054757;28;20025;-76
2023/07/28 03:39:56;;;;;;;18.27;6.15;;;18.10;99.90;;;;;;5053157;28;20115;-75
2023/07/28 03:42:22;;;;;;;22.13;7.15;;;18.10;99.90;;;;;;5054570;28;20106;-75
2023/07/28 03:44:48;;;;;;;31.70;7.75;;;18.10;99.90;;;;;;5053104;28;20028;-75
2023/07/28 03:47:13;;;;;;;25.75;7.70;;;18.00;99.90;;;;;;5055046;28;20021;-76
2023/07/28 03:49:39;;;;;;;34.78;7.25;;;18.10;99.90;;;;;;5054382;28;20076;-76
2023/07/28 03:52:05;;;;;;;22.42;7.18;;;18.10;99.90;;;;;;5054872;28;20538;-76
2023/07/28 03:54:30;;;;;;;24.38;7.45;;;18.10;99.90;;;;;;5053062;28;20052;-76
2023/07/28 03:56:56;;;;;;;23.38;8.43;;;18.10;99.90;;;;;;5054255;28;20033;-76
2023/07/28 03:59:21;;;;;;;29.00;7.63;;;18.10;99.90;;;;;;5052947;28;20443;-76
2023/07/28 04:01:47;;;;;;;26.17;8.80;;;18.20;99.90;;;;;;5054127;28;20047;-76
2023/07/28 04:04:13;;;;;;;22.20;8.02;;;18.10;99.90;;;;;;5053925;28;20388;-76
2023/07/28 04:06:46;;;;;;;22.85;8.48;;;18.20;99.90;;;;;;5054049;28;20028;-75
2023/07/28 04:09:14;;;;;;;20.17;9.20;;;18.10;99.90;;;;;;5052774;28;20492;-75
2023/07/28 04:11:39;;;;;;;21.10;7.47;;;18.10;99.90;;;;;;5054015;28;20025;-75
2023/07/28 04:14:05;;;;;;;28.13;7.63;;;18.10;99.90;;;;;;5053869;28;20483;-76
2023/07/28 04:16:31;;;;;;;24.08;7.90;;;18.20;99.90;;;;;;5053887;28;20037;-75
2023/07/28 04:18:57;;;;;;;21.17;8.65;;;18.20;99.90;;;;;;5054372;28;20036;-75
2023/07/28 04:21:22;;;;;;;20.10;6.90;;;18.10;99.90;;;;;;5053899;28;20020;-76
2023/07/28 04:23:48;;;;;;;23.80;8.20;;;18.20;99.90;;;;;;5054138;28;20059;-76
2023/07/28 04:26:14;;;;;;;24.23;8.20;;;18.20;99.90;;;;;;5054354;28;20472;-76
2023/07/28 04:28:39;;;;;;;21.52;9.23;;;18.10;99.90;;;;;;5052490;28;20090;-75
2023/07/28 04:31:05;;;;;;;27.08;8.15;;;18.10;99.90;;;;;;5054182;28;20025;-76
2023/07/28 04:33:31;;;;;;;23.88;8.68;;;18.10;99.90;;;;;;5053565;28;20434;-76
2023/07/28 04:35:56;;;;;;;24.55;8.00;;;18.10;99.90;;;;;;5053611;28;20036;-76
2023/07/28 04:38:22;;;;;;;24.88;8.50;;;18.20;99.90;;;;;;5053556;28;20018;-75
2023/07/28 04:40:47;;;;;;;24.33;7.93;;;18.10;99.90;;;;;;5053430;28;20025;-76
2023/07/28 04:43:13;;;;;;;31.05;8.45;;;18.10;99.90;;;;;;5052029;28;20029;-76
2023/07/28 04:45:38;;;;;;;19.75;7.78;;;18.10;99.90;;;;;;5052032;28;20028;-75
2023/07/28 04:48:04;;;;;;;22.65;8.00;;;18.20;99.90;;;;;;5053385;28;20025;-75
2023/07/28 04:50:30;;;;;;;25.25;7.82;;;18.20;99.90;;;;;;5053391;28;20017;-74
2023/07/28 04:52:55;;;;;;;27.58;7.80;;;18.20;99.90;;;;;;5053299;28;20095;-74
2023/07/28 04:55:21;;;;;;;27.17;8.00;;;18.60;99.90;;;;;;5051868;28;20039;-76
2023/07/28 04:57:46;;;;;;;26.50;8.00;;;18.10;99.90;;;;;;5053134;28;20039;-75
2023/07/28 05:00:12;;;;;;;23.08;8.48;;;18.20;99.90;;;;;;5053180;28;20017;-75
2023/07/28 05:02:38;;;;;;;31.08;9.20;;;18.20;99.90;;;;;;5052994;28;20037;-75
2023/07/28 05:05:04;;;;;;;29.40;8.43;;;18.20;99.90;;;;;;5053019;28;20032;-75
2023/07/28 05:07:30;;;;;;;23.52;7.95;;;18.20;99.90;;;;;;5053135;28;20101;-76
2023/07/28 05:09:55;;;;;;;21.55;7.47;;;18.20;99.90;;;;;;5053643;28;20075;-76
2023/07/28 05:12:21;;;;;;;25.50;7.88;;;18.20;99.90;;;;;;5053101;28;20071;-76
2023/07/28 05:14:46;;;;;;;28.38;8.70;;;18.60;99.90;;;;;;5053006;28;20111;-76
2023/07/28 05:17:12;;;;;;;27.42;8.23;;;18.30;99.90;;;;;;5051720;28;20033;-76
2023/07/28 05:19:38;;;;;;;20.08;8.02;;;18.30;99.90;;;;;;5051733;28;20025;-75
2023/07/28 05:22:03;;;;;;;23.58;8.35;;;18.30;99.90;;;;;;5053025;28;20031;-76
2023/07/28 05:24:29;;;;;;;26.35;8.00;;;18.30;99.90;;;;;;5052837;28;20028;-74
2023/07/28 05:26:54;;;;;;;29.40;8.32;;;18.30;99.90;;;;;;5052873;28;20021;-74
2023/07/28 05:29:20;;;;;;;22.88;8.60;;;18.30;99.90;;;;;;5053056;28;20539;-76
2023/07/28 05:31:46;;;;;;;21.73;6.72;;;18.30;99.90;;;;;;5053701;28;20031;-75
2023/07/28 05:34:14;;;;;;;21.83;7.55;;;18.50;99.90;;;;;;5052931;28;20047;-76
2023/07/28 05:36:40;;;;;;;23.27;7.72;;;18.40;99.90;;;;;;5052978;28;20524;-76
2023/07/28 05:39:05;;;;;;;25.67;7.85;;;18.60;99.90;;;;;;5053301;28;20106;-75
2023/07/28 05:41:32;;;;;;;19.92;7.97;;;18.50;99.90;;;;;;5051972;28;20124;-75
2023/07/28 05:43:57;;;;;;;22.00;9.13;;;18.50;99.90;;;;;;5052721;28;20036;-76
2023/07/28 05:46:23;;;;;;;23.65;8.20;;;18.50;99.90;;;;;;5052877;28;20024;-76
2023/07/28 05:48:49;;;;;;;20.52;8.02;;;18.50;99.90;;;;;;5053303;28;20025;-76
2023/07/28 05:51:14;;;;;;;18.80;7.30;;;18.50;99.90;;;;;;5052681;28;20488;-76
2023/07/28 05:53:40;;;;;;;19.58;7.28;;;19.10;99.90;;;;;;5051472;28;20029;-76
2023/07/28 05:56:05;;;;;;;21.83;8.88;;;18.60;99.90;;;;;;5051644;28;20056;-76
2023/07/28 05:58:31;;;;;;;21.08;7.22;;;18.60;99.90;;;;;;5053310;28;20040;-76
2023/07/28 06:00:57;;;;;;;19.27;6.40;;;18.60;99.90;;;;;;5053194;28;20060;-76
2023/07/28 06:03:22;;;;;;;19.40;7.82;;;18.60;99.90;;;;;;5054190;28;20396;-75
2023/07/28 06:05:48;;;;;;;19.65;7.15;;;18.60;99.90;;;;;;5057030;28;20068;-74
2023/07/28 06:08:14;;;;;;;24.42;8.80;;;18.60;99.90;;;;;;5055202;28;20013;-76
2023/07/28 06:10:39;;;;;;;25.00;8.07;;;18.60;99.90;;;;;;5055090;28;20550;-76
2023/07/28 06:13:05;;;;;;;26.17;8.23;;;18.70;99.90;;;;;;5056317;28;20025;-76
2023/07/28 06:15:31;;;;;;;21.00;7.10;;;18.70;99.90;;;;;;5055112;28;20028;-76
2023/07/28 06:17:56;;;;;;;25.05;7.60;;;18.70;99.90;;;;;;5054868;28;20032;-75
2023/07/28 06:20:22;;;;;;;20.20;7.20;;;18.70;99.90;;;;;;5056696;28;20029;-75
2023/07/28 06:22:47;;;;;;;25.58;7.28;;;18.80;99.90;;;;;;5056228;28;20021;-75
2023/07/28 06:25:13;;;;;;;25.92;7.28;;;18.80;99.90;;;;;;5056016;28;20033;-75
2023/07/28 06:27:38;;;;;;;14.13;7.03;;;18.80;99.90;;;;;;5056058;28;20108;-76
2023/07/28 06:30:05;;;;;;;18.23;6.60;;;18.80;99.90;;;;;;5055157;28;20025;-76
2023/07/28 06:32:31;;;;;;;21.02;7.78;;;18.90;99.90;;;;;;5056530;28;20033;-76
2023/07/28 06:34:57;;;;;;;18.23;7.05;;;18.80;99.90;;;;;;5054775;28;20072;-76
2023/07/28 06:37:23;;;;;;;22.50;7.72;;;18.90;99.90;;;;;;5056221;28;20074;-76
2023/07/28 06:39:49;;;;;;;18.65;7.18;;;18.90;99.90;;;;;;5055676;28;20400;-76
2023/07/28 06:42:16;;;;;;;15.73;7.22;;;18.90;99.90;;;;;;5054516;28;20412;-75
2023/07/28 06:44:42;;;;;;;19.35;7.18;;;18.90;99.90;;;;;;5055590;28;20025;-76
2023/07/28 06:47:07;;;;;;;22.83;8.48;;;19.00;99.90;;;;;;5055631;28;20031;-76
2023/07/28 06:49:33;;;;;;;16.70;7.65;;;18.90;99.90;;;;;;5056160;28;20510;-76
2023/07/28 06:51:58;;;;;;;21.10;6.93;;;19.00;99.90;;;;;;5054246;28;20104;-75
2023/07/28 06:54:24;;;;;;;24.42;7.07;;;18.90;99.90;;;;;;5054151;28;20013;-76
2023/07/28 06:56:50;;;;;;;16.70;7.28;;;19.00;99.90;;;;;;5055417;28;20484;-74
2023/07/28 06:59:16;;;;;;;15.95;6.65;;;19.00;99.90;;;;;;5054118;28;20040;-76
2023/07/28 07:01:41;;;;;;;14.35;6.03;;;19.00;99.90;;;;;;5055391;28;20048;-76
2023/07/28 07:04:07;;;;;;;14.35;6.57;;;19.00;99.90;;;;;;5055287;28;20507;-76
2023/07/28 07:06:32;;;;;;;18.95;7.30;;;19.00;99.90;;;;;;5055372;28;20017;-76
2023/07/28 07:08:58;;;;;;;15.98;7.07;;;19.10;99.90;;;;;;5054186;28;20435;-76
2023/07/28 07:11:23;;;;;;;22.33;6.88;;;19.30;99.90;;;;;;5053914;28;20435;-76
2023/07/28 07:13:49;;;;;;;17.17;6.65;;;19.30;99.90;;;;;;5054629;28;20029;-76
2023/07/28 07:16:16;;;;;;;18.60;7.50;;;19.40;99.90;;;;;;5055797;28;20079;-76
2023/07/28 07:18:42;;;;;;;17.10;6.38;;;19.40;99.90;;;;;;5055819;28;20094;-76
2023/07/28 07:21:08;;;;;;;19.27;7.25;;;19.50;99.90;;;;;;5055039;28;20020;-76
2023/07/28 07:23:33;;;;;;;16.73;7.20;;;19.60;99.90;;;;;;5053964;28;20112;-75
2023/07/28 07:25:59;;;;;;;18.98;8.13;;;19.80;99.90;;;;;;5053656;28;20488;-75
2023/07/28 07:28:25;;;;;;;17.27;7.72;;;19.80;99.90;;;;;;5053827;28;20036;-75
2023/07/28 07:30:51;;;;;;;21.33;7.72;;;19.90;99.90;;;;;;5053781;28;20017;-76
2023/07/28 07:33:16;;;;;;;16.08;6.82;;;19.90;99.90;;;;;;5054807;28;20472;-76
2023/07/28 07:35:42;;;;;;;15.05;7.38;;;20.00;99.90;;;;;;5054747;28;20020;-75
2023/07/28 07:38:08;;;;;;;14.98;6.88;;;20.00;99.90;;;;;;5055046;28;20021;-75
2023/07/28 07:40:35;;;;;;;14.13;6.28;;;20.00;99.90;;;;;;5054903;28;20365;-76
2023/07/28 07:43:03;;;;;;;14.77;5.47;;;20.00;99.90;;;;;;5054684;28;20021;-75
2023/07/28 07:45:31;;;;;;;11.43;5.35;;;19.90;99.90;;;;;;5054757;28;20547;-75
2023/07/28 07:47:58;;;;;;;11.73;5.50;;;19.90;99.90;;;;;;5054767;28;20040;-74
2023/07/28 07:50:23;;;;;;;14.88;5.25;;;19.80;99.90;;;;;;5055222;28;20021;-75
2023/07/28 07:52:49;;;;;;;15.40;6.05;;;19.70;99.90;;;;;;5054583;28;20499;-75
2023/07/28 07:55:14;;;;;;;10.73;4.85;;;19.70;99.90;;;;;;5054404;28;20036;-76
2023/07/28 07:57:41;;;;;;;10.30;5.40;;;19.70;99.90;;;;;;5054353;28;20021;-76
2023/07/28 08:00:07;;;;;;;11.63;4.70;;;19.60;99.90;;;;;;5054404;28;20496;-76
2023/07/28 08:02:32;;;;;;;11.43;4.60;;;19.60;99.90;;;;;;5052727;28;20028;-75
2023/07/28 08:04:58;;;;;;;11.18;4.32;;;19.60;99.90;;;;;;5054051;28;20025;-76
2023/07/28 08:07:23;;;;;;;10.43;4.35;;;19.60;99.90;;;;;;5054158;28;20032;-75
2023/07/28 08:09:50;;;;;;;10.40;3.72;;;19.70;99.90;;;;;;5054520;28;20017;-76
2023/07/28 08:12:16;;;;;;;10.20;3.72;;;19.80;99.90;;;;;;5054122;28;20028;-75
2023/07/28 08:14:41;;;;;;;5.22;2.90;;;19.80;99.90;;;;;;5054053;28;20033;-76
2023/07/28 08:17:08;;;;;;;10.13;3.55;;;19.80;99.90;;;;;;5052801;28;20070;-75
2023/07/28 08:19:34;;;;;;;6.30;2.42;;;19.90;99.90;;;;;;5052829;28;20033;-75
2023/07/28 08:22:01;;;;;;;9.05;3.25;;;20.00;99.90;;;;;;5052821;28;20027;-75
2023/07/28 08:24:26;;;;;;;8.95;2.92;;;20.00;99.90;;;;;;5053173;28;20083;-75
2023/07/28 08:26:52;;;;;;;8.80;2.40;;;20.10;99.90;;;;;;5053694;28;20021;-75
2023/07/28 08:29:17;;;;;;;9.20;3.30;;;20.20;99.90;;;;;;5053979;28;20092;-76
2023/07/28 08:31:43;;;;;;;4.90;2.42;;;20.40;99.90;;;;;;5054483;28;20017;-76
2023/07/28 08:34:08;;;;;;;7.88;2.25;;;20.40;99.90;;;;;;5053953;28;20025;-76
2023/07/28 08:36:34;;;;;;;4.35;2.08;;;20.50;99.90;;;;;;5052394;28;20025;-75
2023/07/28 08:39:00;;;;;;;2.10;1.13;;;20.60;99.90;;;;;;5053688;28;20021;-75
2023/07/28 08:41:25;;;;;;;3.67;1.38;;;20.60;99.90;;;;;;5052261;28;20063;-76
2023/07/28 08:43:53;;;;;;;4.65;1.98;;;20.70;99.90;;;;;;5053408;28;20102;-76
2023/07/28 08:46:20;;;;;;;5.30;2.63;;;20.80;99.90;;;;;;5052185;28;20025;-75
2023/07/28 08:48:45;;;;;;;3.40;0.98;;;21.00;99.90;;;;;;5053449;28;20075;-76
2023/07/28 08:51:13;;;;;;;4.68;1.33;;;21.10;99.90;;;;;;5053911;28;20048;-75
2023/07/28 08:53:39;;;;;;;3.78;1.60;;;21.40;99.90;;;;;;5053253;28;20506;-75
2023/07/28 08:56:06;;;;;;;3.67;0.80;;;21.70;99.90;;;;;;5052108;28;20442;-76
2023/07/28 08:58:32;;;;;;;3.47;1.05;;;22.00;99.90;;;;;;5052216;28;20112;-76
2023/07/28 09:01:01;;;;;;;2.83;0.55;;;22.10;99.90;;;;;;5053389;28;20034;-76
2023/07/28 09:03:27;;;;;;;6.72;0.85;;;22.30;99.90;;;;;;5053118;28;20524;-75
2023/07/28 09:06:01;;;;;;;2.75;0.60;;;22.30;99.90;;;;;;5053487;28;20104;-75
2023/07/28 09:08:26;;;;;;;3.85;0.73;;;22.40;99.90;;;;;;5052030;28;20056;-75
2023/07/28 09:10:54;;;;;;;7.80;1.40;;;22.50;99.90;;;;;;5053684;28;20538;-75
2023/07/28 09:13:20;;;;;;;6.32;0.70;;;22.70;99.90;;;;;;5053190;28;20013;-75
2023/07/28 09:15:46;;;;;;;4.80;0.80;;;23.00;99.90;;;;;;5053184;28;20025;-76
2023/07/28 09:18:15;;;;;;;2.85;1.15;;;22.70;99.90;;;;;;5052136;28;20384;-75
2023/07/28 09:20:41;;;;;;;5.03;0.77;;;22.60;99.90;;;;;;5053271;28;20028;-76
2023/07/28 09:23:08;;;;;;;6.25;1.13;;;22.70;99.90;;;;;;5051856;28;20032;-75
2023/07/28 09:25:36;;;;;;;6.00;0.80;;;22.70;99.90;;;;;;5052942;28;20096;-75
2023/07/28 09:28:02;;;;;;;4.95;1.58;;;22.80;99.90;;;;;;5053015;28;20024;-76
2023/07/28 09:30:46;;;;;;;4.93;0.63;;;22.90;99.90;;;;;;5051891;28;20021;-76
2023/07/28 09:33:12;;;;;;;3.28;1.38;;;23.00;99.90;;;;;;5052950;28;20021;-76
2023/07/28 09:35:48;;;;;;;4.47;1.42;;;23.00;99.90;;;;;;5051682;28;20419;-74
2023/07/28 09:38:15;;;;;;;5.97;1.55;;;22.90;99.90;;;;;;5057169;28;20114;-76
2023/07/28 09:40:40;;;;;;;3.05;1.10;;;22.80;99.90;;;;;;5055798;28;20108;-76
2023/07/28 09:43:06;;;;;;;4.90;1.50;;;23.10;99.90;;;;;;5057210;28;20068;-76
2023/07/28 09:45:33;;;;;;;2.53;1.17;;;23.40;99.90;;;;;;5056781;28;20021;-76
2023/07/28 09:48:02;;;;;;;1.67;1.02;;;23.40;99.90;;;;;;5057451;28;20117;-76
2023/07/28 09:50:32;;;;;;;4.50;1.42;;;23.30;99.90;;;;;;5055663;28;20053;-76
2023/07/28 09:53:04;;;;;;;3.80;0.93;;;23.30;99.90;;;;;;5055495;28;20392;-76
2023/07/28 09:55:30;;;;;;;2.17;1.42;;;23.10;99.90;;;;;;5055453;28;20395;-75
2023/07/28 09:57:59;;;;;;;6.05;1.35;;;23.00;99.90;;;;;;5056778;28;20025;-75
2023/07/28 10:00:25;;;;;;;3.72;0.80;;;23.10;99.90;;;;;;5056833;28;20074;-75
2023/07/28 10:02:53;;;;;;;5.22;1.17;;;23.30;99.90;;;;;;5056459;28;20040;-76
2023/07/28 10:05:19;;;;;;;3.45;0.88;;;23.50;99.90;;;;;;5056376;28;20021;-76
2023/07/28 10:07:46;;;;;;;3.42;1.48;;;23.70;99.90;;;;;;5055167;28;20021;-75
2023/07/28 10:10:13;;;;;;;9.32;1.33;;;24.00;99.90;;;;;;5056391;28;20612;-76
2023/07/28 10:12:46;;;;;;;4.22;1.58;;;24.10;99.90;;;;;;5056260;28;20021;-76
2023/07/28 10:15:17;;;;;;;3.22;0.70;;;24.40;99.90;;;;;;5054999;28;20028;-75
2023/07/28 10:17:49;;;;;;;2.00;0.88;;;24.70;99.90;;;;;;5056390;28;20021;-76
2023/07/28 10:20:35;;;;;;;4.40;1.00;;;24.70;99.90;;;;;;5056259;28;20429;-75
2023/07/28 10:23:07;;;;;;;2.17;0.70;;;24.40;99.90;;;;;;5056767;28;20037;-76
2023/07/28 10:25:35;;;;;;;3.53;2.00;;;24.40;99.90;;;;;;5056244;28;20026;-76
2023/07/28 10:28:02;;;;;;;3.10;1.60;;;24.30;99.90;;;;;;5056534;28;20028;-75
2023/07/28 10:30:28;;;;;;;4.60;1.35;;;24.20;99.90;;;;;;5055954;28;20013;-76
2023/07/28 10:32:54;;;;;;;1.40;0.90;;;24.30;99.90;;;;;;5056118;28;20028;-75
2023/07/28 10:35:26;;;;;;;4.57;1.23;;;24.20;99.90;;;;;;5055960;28;20028;-76
2023/07/28 10:37:55;;;;;;;4.65;0.85;;;24.10;99.90;;;;;;5055908;28;20025;-76
2023/07/28 10:40:31;;;;;;;3.58;1.55;;;23.90;99.90;;;;;;5055880;28;20021;-76
2023/07/28 10:42:58;;;;;;;3.22;1.67;;;24.10;99.90;;;;;;5054667;28;20025;-75
2023/07/28 10:45:26;;;;;;;4.18;1.20;;;24.30;99.90;;;;;;5055760;28;20024;-75
2023/07/28 10:47:55;;;;;;;3.17;1.27;;;24.50;99.90;;;;;;5055063;28;20108;-75
2023/07/28 10:50:21;;;;;;;;;;;24.70;99.90;;;;;;5054892;28;20076;-75
2023/07/28 10:52:46;;;;;;;0.95;0.90;;;24.70;99.90;;;;;;5055745;28;19905;-75
2023/07/28 10:55:16;;;;;;;5.57;0.95;;;24.70;99.90;;;;;;5054210;28;20108;-76
2023/07/28 10:57:43;;;;;;;6.50;1.25;;;24.70;99.90;;;;;;5054297;28;20166;-76
2023/07/28 11:00:11;;;;;;;6.75;1.60;;;24.70;99.90;;;;;;5054233;28;20158;-76
2023/07/28 11:02:49;;;;;;;2.13;0.77;;;24.60;99.90;;;;;;5053985;28;20033;-76
2023/07/28 11:05:21;;;;;;;4.25;0.65;;;24.50;99.90;;;;;;5056222;28;20476;-76
2023/07/28 11:07:48;;;;;;;8.85;1.48;;;24.40;99.90;;;;;;5054229;28;20021;-75
2023/07/28 11:10:14;;;;;;;1.75;0.98;;;24.40;99.90;;;;;;5054097;28;20116;-76
2023/07/28 11:12:42;;;;;;;3.13;1.38;;;24.50;99.90;;;;;;5055370;28;20017;-75
2023/07/28 11:15:11;;;;;;;4.30;1.30;;;24.60;99.90;;;;;;5055233;28;20036;-76
2023/07/28 11:17:46;;;;;;;2.65;1.40;;;24.60;99.90;;;;;;5053856;28;20070;-76
2023/07/28 11:20:19;;;;;;;4.85;1.73;;;24.70;99.90;;;;;;5053912;28;20375;-76
2023/07/28 11:22:46;;;;;;;3.13;1.10;;;24.70;99.90;;;;;;5055142;28;20396;-75
2023/07/28 11:25:12;;;;;;;3.00;1.67;;;24.80;99.90;;;;;;5055205;28;20025;-75
2023/07/28 11:27:39;;;;;;;2.67;1.10;;;25.10;99.90;;;;;;5054055;28;20357;-76
2023/07/28 11:30:07;;;;;;;7.80;2.25;;;25.30;99.90;;;;;;5055220;28;20031;-76
2023/07/28 11:32:34;;;;;;;4.65;1.65;;;25.20;99.90;;;;;;5055656;28;20025;-76
2023/07/28 11:35:09;;;;;;;4.72;1.10;;;25.30;99.90;;;;;;5055200;28;20392;-76
2023/07/28 11:37:38;;;;;;;4.55;1.10;;;25.60;99.90;;;;;;5054940;28;20391;-76
2023/07/28 11:40:10;;;;;;;2.90;1.13;;;25.80;99.90;;;;;;5054874;28;20032;-75
2023/07/28 11:42:48;;;;;;;2.15;0.95;;;25.90;99.90;;;;;;5053408;28;20127;-76
2023/07/28 11:45:15;;;;;;;4.75;0.70;;;26.00;99.90;;;;;;5054612;28;20459;-76
2023/07/28 11:48:05;;;;;;;2.58;0.90;;;26.00;99.90;;;;;;5054951;28;20048;-75
2023/07/28 11:50:41;;;;;;;3.65;1.50;;;26.30;99.90;;;;;;5053311;28;20395;-75
2023/07/28 11:53:08;;;;;;;4.05;1.17;;;25.90;99.90;;;;;;5054435;28;20021;-75
2023/07/28 11:55:36;;;;;;;4.18;1.08;;;25.90;99.90;;;;;;5053246;28;20498;-75
2023/07/28 11:58:04;;;;;;;1.88;1.00;;;25.80;99.90;;;;;;5054629;28;20067;-75
2023/07/28 12:00:34;;;;;;;3.05;0.77;;;25.70;99.90;;;;;;5054451;28;20052;-74
2023/07/28 12:03:05;;;;;;;2.60;1.10;;;25.70;99.90;;;;;;5053212;28;20474;-76
2023/07/28 12:05:32;;;;;;;3.97;1.30;;;25.50;99.90;;;;;;5052885;28;20484;-75
2023/07/28 12:07:59;;;;;;;4.20;1.40;;;25.40;99.90;;;;;;5053169;28;20445;-76
2023/07/28 12:10:24;;;;;;;3.70;0.90;;;25.30;99.90;;;;;;5053014;28;20024;-75
2023/07/28 12:12:50;;;;;;;5.35;0.88;;;25.10;99.90;;;;;;5054102;28;20017;-76
2023/07/28 12:15:30;;;;;;;4.68;1.20;;;25.00;99.90;;;;;;5053963;28;20541;-75
2023/07/28 12:18:14;;;;;;;5.38;2.10;;;24.80;99.90;;;;;;5054171;28;20039;-75
2023/07/28 12:20:47;;;;;;;4.28;1.00;;;24.70;99.90;;;;;;5052932;28;20025;-76
2023/07/28 12:23:15;;;;;;;6.43;1.77;;;24.60;99.90;;;;;;5054083;28;20078;-76
2023/07/28 12:25:41;;;;;;;3.83;1.05;;;24.40;99.90;;;;;;5054288;28;20025;-76
2023/07/28 12:28:07;;;;;;;3.55;1.50;;;24.50;99.90;;;;;;5052997;28;20499;-74
2023/07/28 12:30:33;;;;;;;4.18;1.17;;;24.60;99.90;;;;;;5053785;28;20025;-76
2023/07/28 12:33:00;;;;;;;1.33;0.73;;;24.70;99.90;;;;;;5053027;28;20048;-75
2023/07/28 12:35:30;;;;;;;4.00;1.60;;;24.70;99.90;;;;;;5053072;28;20017;-75
2023/07/28 12:37:56;;;;;;;3.65;1.00;;;24.40;99.90;;;;;;5052910;28;20041;-75